Time;durP1;ratioP1;P1;durP2;ratioP2;P2;SDS_P1;SDS_P2;PMS_P1;PMS_P2;Temp;Humidity;BMP_temperature;BMP_pressure;BME280_temperature;BME280_humidity;BME280_pressure;Samples;Min_cycle;Max_cycle;Signal;HPM_P1;HPM_P2
2022/03/05 00:00:09;;;;;;;;;56.00;45.25;;;;;10.06;70.16;100688.84;146605;593;46016;-71
2022/03/05 00:03:03;;;;;;;;;62.00;47.00;;;;;10.10;70.02;100697.69;146609;732;46020;-72
2022/03/05 00:05:55;;;;;;;;;60.25;49.00;;;;;10.13;69.94;100684.87;146602;592;47010;-66
2022/03/05 00:08:47;;;;;;;;;76.00;58.67;;;;;10.16;70.21;100692.81;146611;622;46020;-66
2022/03/05 00:11:39;;;;;;;;;83.33;72.67;;;;;10.17;69.92;100690.28;146613;583;46016;-66
2022/03/05 00:14:31;;;;;;;;;44.50;36.00;;;;;10.21;70.14;100693.03;146610;654;47008;-68
2022/03/05 00:17:23;;;;;;;;;44.00;36.50;;;;;10.19;69.83;100692.97;146606;595;46912;-68
2022/03/05 00:20:15;;;;;;;;;39.25;34.00;;;;;10.21;69.58;100691.34;146607;571;46008;-69
2022/03/05 00:23:07;;;;;;;;;45.75;35.50;;;;;10.19;70.20;100695.56;146604;618;46016;-68
2022/03/05 00:25:59;;;;;;;;;44.00;34.00;;;;;10.17;70.18;100695.47;146601;605;46021;-67
2022/03/05 00:28:51;;;;;;;;;37.00;31.00;;;;;10.15;71.61;100702.25;146602;708;46913;-70
2022/03/05 00:31:43;;;;;;;;;34.00;29.75;;;;;10.10;70.46;100702.88;146606;563;46008;-70
2022/03/05 00:34:35;;;;;;;;;41.00;31.75;;;;;10.09;69.43;100701.97;146605;581;46017;-68
2022/03/05 00:37:27;;;;;;;;;35.50;30.00;;;;;10.11;69.44;100702.03;146608;593;46020;-69
2022/03/05 00:40:19;;;;;;;;;60.25;47.75;;;;;10.14;68.90;100699.59;146604;606;46016;-67
2022/03/05 00:43:13;;;;;;;;;57.00;44.50;;;;;10.15;69.30;100697.09;146609;580;46021;-67
2022/03/05 00:46:05;;;;;;;;;50.50;41.75;;;;;10.17;69.89;100699.78;146604;584;46032;-67
2022/03/05 00:48:57;;;;;;;;;43.00;35.25;;;;;10.15;70.13;100691.03;146606;621;47008;-68
2022/03/05 00:51:49;;;;;;;;;44.25;36.25;;;;;10.10;70.75;100688.19;146605;580;46016;-68
2022/03/05 00:54:41;;;;;;;;;42.25;37.00;;;;;10.02;70.61;100679.12;146602;633;46020;-70
2022/03/05 00:57:33;;;;;;;;;47.25;37.75;;;;;10.00;71.34;100670.41;146602;599;46016;-72
2022/03/05 01:00:25;;;;;;;;;50.25;41.00;;;;;9.95;71.32;100674.44;146607;564;46008;-72
2022/03/05 01:03:17;;;;;;;;;46.50;36.25;;;;;9.91;71.32;100675.97;146602;564;46017;-74
2022/03/05 01:06:09;;;;;;;;;46.75;37.00;;;;;9.89;70.51;100671.53;146607;580;46021;-76
2022/03/05 01:09:03;;;;;;;;;45.00;37.00;;;;;9.90;70.95;100668.13;146602;630;46010;-68
2022/03/05 01:11:55;;;;;;;;;41.75;34.25;;;;;9.93;70.27;100673.47;146609;605;46021;-69
2022/03/05 01:14:48;;;;;;;;;47.00;37.00;;;;;10.00;70.93;100678.19;146605;727;46026;-69
2022/03/05 01:17:40;;;;;;;;;47.25;38.75;;;;;10.05;71.54;100681.00;146607;598;46020;-68
2022/03/05 01:20:32;;;;;;;;;44.25;37.00;;;;;10.06;71.84;100670.72;146599;564;47012;-68
2022/03/05 01:23:23;;;;;;;;;44.50;37.50;;;;;10.05;71.17;100676.69;146600;582;47008;-68
2022/03/05 01:26:16;;;;;;;;;48.75;38.00;;;;;10.08;71.31;100678.56;146602;601;46913;-68
2022/03/05 01:29:07;;;;;;;;;32.75;30.00;;;;;10.08;71.31;100674.25;146610;599;46008;-70
2022/03/05 01:32:00;;;;;;;;;33.00;28.50;;;;;10.08;71.34;100679.44;146604;629;46016;-69
2022/03/05 01:34:52;;;;;;;;;33.50;30.50;;;;;10.09;71.63;100677.75;146609;697;46021;-68
2022/03/05 01:37:44;;;;;;;;;32.25;30.00;;;;;10.08;72.20;100682.03;146604;628;46016;-71
2022/03/05 01:40:38;;;;;;;;;25.50;23.75;;;;;10.08;72.57;100675.97;146604;698;47008;-69
2022/03/05 01:43:31;;;;;;;;;28.00;25.25;;;;;10.05;71.18;100674.09;146604;595;46016;-70
2022/03/05 01:46:37;;;;;;;;;27.75;24.75;;;;;10.04;69.99;100671.44;146607;569;46008;-71
2022/03/05 01:49:32;;;;;;;;;46.50;37.50;;;;;10.08;70.05;100666.50;146605;658;46913;-70
2022/03/05 01:52:24;;;;;;;;;41.50;33.75;;;;;10.09;70.21;100670.87;146603;592;46020;-70
2022/03/05 01:55:17;;;;;;;;;49.00;39.00;;;;;10.10;70.23;100667.47;146602;688;47010;-67
2022/03/05 01:58:09;;;;;;;;;38.75;32.75;;;;;10.11;69.51;100668.34;146605;588;47008;-67
2022/03/05 02:01:01;;;;;;;;;39.00;33.00;;;;;10.12;69.72;100664.94;146604;563;47012;-67
2022/03/05 02:03:54;;;;;;;;;39.00;34.00;;;;;10.16;70.10;100666.91;146606;624;46020;-68
2022/03/05 02:06:47;;;;;;;;;34.00;30.75;;;;;10.17;70.15;100664.37;146604;613;46016;-71
2022/03/05 02:09:39;;;;;;;;;31.00;28.75;;;;;10.18;69.78;100660.09;146606;628;46008;-71
2022/03/05 02:12:32;;;;;;;;;31.25;27.50;;;;;9.84;69.66;100605.63;146602;587;47010;-68
2022/03/05 02:15:24;;;;;;;;;28.50;28.00;;;;;10.17;69.68;100654.00;146608;631;46008;-67
2022/03/05 02:18:16;;;;;;;;;32.00;28.50;;;;;10.19;69.48;100643.75;146603;648;47012;-67
2022/03/05 02:21:09;;;;;;;;;30.75;26.00;;;;;10.20;69.41;100645.53;146601;702;46020;-67
2022/03/05 02:24:01;;;;;;;;;27.25;24.00;;;;;10.18;70.39;100648.00;146604;609;46016;-68
2022/03/05 02:26:53;;;;;;;;;31.75;28.25;;;;;10.16;69.29;100654.84;146608;569;46020;-69
2022/03/05 02:29:45;;;;;;;;;32.50;24.75;;;;;10.14;70.12;100651.25;146604;602;47010;-68
2022/03/05 02:32:37;;;;;;;;;31.25;28.00;;;;;10.13;71.12;100665.03;146605;599;47008;-70
2022/03/05 02:35:30;;;;;;;;;23.25;21.25;;;;;10.10;69.96;100664.00;146605;570;46020;-71
2022/03/05 02:38:25;;;;;;;;;27.50;25.00;;;;;9.09;70.29;100495.56;146607;574;46020;-72
2022/03/05 02:41:18;;;;;;;;;23.00;20.00;;;;;10.05;71.01;100661.16;146605;634;46017;-70
2022/03/05 02:44:10;;;;;;;;;24.00;21.00;;;;;10.05;69.68;100668.91;146604;626;47008;-70
2022/03/05 02:47:03;;;;;;;;;33.25;28.50;;;;;10.05;70.31;100668.91;146604;613;46029;-68
2022/03/05 02:49:55;;;;;;;;;44.50;36.75;;;;;10.02;71.08;100667.87;146602;654;46020;-69
2022/03/05 02:52:47;;;;;;;;;37.00;27.00;;;;;9.98;71.02;100666.84;146603;579;46031;-68
2022/03/05 02:55:39;;;;;;;;;28.50;25.25;;;;;9.89;72.24;100675.00;146608;578;46008;-70
2022/03/05 02:58:32;;;;;;;;;33.75;29.00;;;;;9.83;71.35;100671.19;146600;570;47010;-68
2022/03/05 03:01:24;;;;;;;;;29.00;27.50;;;;;9.75;72.14;100668.22;146604;612;46020;-69
2022/03/05 03:04:16;;;;;;;;;31.75;27.75;;;;;9.75;71.23;100668.22;146602;566;47010;-68
2022/03/05 03:07:09;;;;;;;;;41.75;35.75;;;;;9.75;71.70;100664.72;146608;576;46020;-68
2022/03/05 03:10:01;;;;;;;;;32.25;26.25;;;;;8.83;74.29;100513.16;146607;612;46010;-68
2022/03/05 03:12:53;;;;;;;;;40.00;31.75;;;;;9.64;76.10;100658.97;146611;575;45020;-73
2022/03/05 03:15:45;;;;;;;;;37.75;32.75;;;;;9.55;74.04;100661.06;146606;605;45881;-72
2022/03/05 03:18:37;;;;;;;;;37.25;32.00;;;;;9.52;74.38;100659.19;146601;602;47008;-70
2022/03/05 03:21:30;;;;;;;;;32.00;29.00;;;;;9.49;74.90;100664.19;146603;666;46010;-70
2022/03/05 03:24:22;;;;;;;;;38.25;33.25;;;;;9.47;73.45;100674.47;146604;588;47008;-69
2022/03/05 03:27:14;;;;;;;;;40.00;33.00;;;;;9.49;73.12;100682.31;146600;623;47010;-70
2022/03/05 03:30:08;;;;;;;;;38.75;34.50;;;;;9.56;72.90;100673.19;146611;650;46012;-70
2022/03/05 03:33:01;;;;;;;;;34.50;30.25;;;;;9.61;73.49;100676.94;146603;652;47012;-69
2022/03/05 03:35:53;;;;;;;;;32.00;25.75;;;;;8.64;72.18;100508.69;146608;586;46020;-69
2022/03/05 03:38:45;;;;;;;;;32.00;29.25;;;;;9.68;72.72;100677.31;146604;599;46016;-69
2022/03/05 03:41:37;;;;;;;;;38.00;32.00;;;;;9.74;73.38;100691.41;146609;566;46008;-70
2022/03/05 03:44:29;;;;;;;;;37.50;31.75;;;;;9.75;73.60;100683.75;146601;581;47012;-68
2022/03/05 03:47:22;;;;;;;;;29.50;26.50;;;;;9.77;73.14;100686.41;146600;565;46021;-69
2022/03/05 03:50:17;;;;;;;;;39.00;32.50;;;;;9.75;72.92;100688.94;146597;614;47913;-69
2022/03/05 03:53:09;;;;;;;;;35.25;31.25;;;;;9.81;72.10;100690.94;146607;580;46020;-69
2022/03/05 03:56:01;;;;;;;;;40.00;33.25;;;;;9.84;71.73;100693.69;146603;601;46031;-70
2022/03/05 03:58:53;;;;;;;;;28.25;25.00;;;;;9.87;71.69;100691.25;146609;580;46008;-67
2022/03/05 04:01:45;;;;;;;;;32.75;30.00;;;;;9.87;72.08;100693.84;146605;615;46017;-68
2022/03/05 04:04:38;;;;;;;;;36.50;31.75;;;;;9.87;72.00;100693.84;146609;574;46020;-68
2022/03/05 04:10:40;;;;;;;;;34.00;31.00;;;;;9.84;72.10;100696.28;146607;686;46021;-69
2022/03/05 04:13:32;;;;;;;;;42.75;32.50;;;;;9.83;72.22;100699.69;146604;614;46016;-75
2022/03/05 04:16:24;;;;;;;;;39.25;33.75;;;;;9.79;72.88;100697.75;146602;642;46020;-73
2022/03/05 04:19:17;;;;;;;;;35.00;30.75;;;;;9.75;72.60;100695.78;146600;643;47010;-71
2022/03/05 04:22:09;;;;;;;;;33.50;31.50;;;;;9.72;72.54;100688.75;146605;609;46020;-70
2022/03/05 04:25:01;;;;;;;;;44.75;36.00;;;;;9.69;72.30;100694.66;146604;581;46017;-70
2022/03/05 04:27:53;;;;;;;;;46.00;34.75;;;;;9.70;72.47;100696.44;146605;566;47008;-70
2022/03/05 04:30:45;;;;;;;;;39.00;33.00;;;;;9.72;73.36;100696.53;146604;579;46010;-78
2022/03/05 04:33:37;;;;;;;;;38.25;30.75;;;;;9.69;72.47;100692.06;146608;602;46008;-74
2022/03/05 04:36:29;;;;;;;;;37.50;31.75;;;;;9.67;73.24;100693.69;146605;578;46016;-74
2022/03/05 04:39:21;;;;;;;;;59.75;46.50;;;;;9.62;75.65;100702.88;146609;623;46008;-74
2022/03/05 04:42:14;;;;;;;;;51.50;41.00;;;;;9.57;74.24;100695.69;146602;630;47010;-73
2022/03/05 04:45:07;;;;;;;;;43.25;36.25;;;;;9.54;73.14;100703.28;146602;576;46008;-73
2022/03/05 04:47:59;;;;;;;;;43.50;34.75;;;;;8.55;73.50;100526.25;146605;570;46016;-73
2022/03/05 04:50:52;;;;;;;;;36.50;30.75;;;;;9.58;73.07;100700.94;146606;564;46020;-76
2022/03/05 04:53:44;;;;;;;;;37.25;31.75;;;;;9.59;73.20;100701.81;146604;565;46012;-73
2022/03/05 04:56:36;;;;;;;;;33.25;30.50;;;;;9.62;74.26;100700.28;146605;729;47008;-70
2022/03/05 04:59:29;;;;;;;;;37.50;32.50;;;;;9.62;74.72;100699.41;146601;582;46013;-69
2022/03/05 05:02:20;;;;;;;;;29.75;26.75;;;;;9.55;74.70;100694.72;146610;602;45021;-69
2022/03/05 05:05:13;;;;;;;;;34.50;30.50;;;;;9.48;73.71;100693.50;146603;570;46012;-70
2022/03/05 05:08:05;;;;;;;;;36.50;30.25;;;;;9.48;73.43;100696.06;146611;590;46021;-71
2022/03/05 05:10:57;;;;;;;;;33.50;29.50;;;;;9.54;73.57;100701.59;146605;591;46016;-75
2022/03/05 05:13:49;;;;;;;;;39.50;32.75;;;;;9.58;72.90;100700.94;146601;642;46020;-70
2022/03/05 05:16:41;;;;;;;;;45.25;35.00;;;;;9.65;72.63;100696.97;146605;569;46017;-70
2022/03/05 05:19:33;;;;;;;;;32.50;30.00;;;;;9.69;72.80;100688.59;146608;608;46020;-67
2022/03/05 05:22:25;;;;;;;;;35.00;31.75;;;;;9.77;72.44;100701.94;146604;629;46016;-68
2022/03/05 05:25:18;;;;;;;;;54.75;40.25;;;;;9.84;72.43;100698.88;146609;664;46020;-67
2022/03/05 05:28:10;;;;;;;;;53.00;41.00;;;;;9.90;72.49;100707.84;146604;680;46016;-68
2022/03/05 05:31:01;;;;;;;;;58.75;42.25;;;;;9.93;72.65;100715.78;146609;768;46008;-68
2022/03/05 05:33:54;;;;;;;;;41.00;34.25;;;;;9.95;72.81;100713.28;146605;586;47010;-68
2022/03/05 05:36:47;;;;;;;;;59.75;45.75;;;;;9.80;75.61;100690.03;146607;603;46008;-68
2022/03/05 05:39:39;;;;;;;;;36.50;32.25;;;;;9.91;75.17;100713.94;146604;626;46011;-68
2022/03/05 05:42:31;;;;;;;;;34.25;31.75;;;;;9.87;74.27;100722.34;146602;572;46020;-68
2022/03/05 05:45:23;;;;;;;;;34.00;30.75;;;;;9.82;73.80;100722.09;146602;572;47010;-71
2022/03/05 05:48:15;;;;;;;;;31.00;28.00;;;;;9.83;73.45;100729.06;146610;608;46020;-69
2022/03/05 05:51:08;;;;;;;;;35.00;31.00;;;;;9.88;73.36;100729.31;146601;600;46010;-66
2022/03/05 05:54:00;;;;;;;;;32.25;27.75;;;;;9.92;73.31;100729.56;146607;594;46021;-67
2022/03/05 05:56:53;;;;;;;;;55.00;44.00;;;;;9.96;73.56;100728.00;146604;570;46016;-65
2022/03/05 05:59:45;;;;;;;;;80.67;69.67;;;;;10.01;73.64;100726.56;146608;570;46008;-69
2022/03/05 06:02:37;;;;;;;;;43.50;36.00;;;;;10.02;73.16;100724.87;146608;571;45913;-69
2022/03/05 06:05:29;;;;;;;;;40.75;34.25;;;;;10.03;74.53;100727.56;146608;580;46020;-72
2022/03/05 06:08:21;;;;;;;;;40.75;34.00;;;;;10.04;73.19;100724.16;146604;638;46016;-70
2022/03/05 06:11:14;;;;;;;;;35.00;30.00;;;;;10.11;73.20;100730.53;146602;564;46020;-68
2022/03/05 06:14:06;;;;;;;;;36.00;31.25;;;;;10.15;72.50;100735.06;146604;585;46016;-70
2022/03/05 06:16:58;;;;;;;;;31.00;28.00;;;;;10.22;72.24;100741.47;146608;613;46008;-69
2022/03/05 06:19:50;;;;;;;;;23.75;22.25;;;;;10.27;71.29;100738.34;146606;617;46030;-71
2022/03/05 06:22:42;;;;;;;;;20.25;20.00;;;;;10.35;71.40;100726.69;146605;631;46008;-72
2022/03/05 06:25:35;;;;;;;;;25.50;21.75;;;;;10.43;71.37;100727.06;146605;576;46016;-72
2022/03/05 06:28:28;;;;;;;;;28.50;25.75;;;;;10.49;71.68;100731.69;146609;565;46008;-72
2022/03/05 06:31:20;;;;;;;;;36.25;31.00;;;;;10.48;71.95;100737.69;146605;576;46017;-72
2022/03/05 06:34:12;;;;;;;;;32.50;28.50;;;;;10.48;72.37;100742.88;146605;642;47008;-72
2022/03/05 06:37:04;;;;;;;;;40.25;33.50;;;;;10.46;72.29;100737.59;146604;569;47011;-72
2022/03/05 06:39:56;;;;;;;;;34.75;30.25;;;;;10.50;72.14;100749.94;146603;606;45021;-72
2022/03/05 06:42:48;;;;;;;;;32.50;29.25;;;;;10.48;71.91;100751.53;146604;569;47010;-73
2022/03/05 06:45:40;;;;;;;;;32.00;27.75;;;;;10.51;71.44;100763.78;146607;682;46021;-73
2022/03/05 06:48:33;;;;;;;;;48.00;38.50;;;;;10.55;71.49;100771.78;146606;697;46016;-73
2022/03/05 06:51:25;;;;;;;;;38.75;32.00;;;;;10.60;71.81;100769.44;146610;605;46021;-72
2022/03/05 06:54:17;;;;;;;;;32.50;29.50;;;;;10.66;71.25;100776.66;146604;588;46016;-72
2022/03/05 06:57:09;;;;;;;;;34.75;30.00;;;;;10.69;70.97;100777.69;146607;563;46008;-72
2022/03/05 07:00:02;;;;;;;;;46.75;37.00;;;;;10.74;70.79;100783.09;146597;584;48913;-72
2022/03/05 07:02:53;;;;;;;;;57.25;45.25;;;;;10.54;71.15;100744.06;146610;656;46020;-73
2022/03/05 07:05:46;;;;;;;;;51.50;41.00;;;;;10.77;71.39;100785.84;146603;603;47013;-70
2022/03/05 07:08:37;;;;;;;;;62.25;49.50;;;;;10.76;72.06;100782.37;146603;639;46021;-72
2022/03/05 07:11:29;;;;;;;;;54.75;42.00;;;;;10.74;72.27;100775.31;146605;582;46016;-73
2022/03/05 07:14:21;;;;;;;;;49.25;40.25;;;;;10.71;72.24;100782.94;146609;641;46021;-73
2022/03/05 07:17:14;;;;;;;;;52.25;41.50;;;;;10.69;72.57;100776.81;146602;633;47010;-73
2022/03/05 07:20:07;;;;;;;;;51.75;39.25;;;;;10.67;72.43;100774.12;146609;582;46020;-73
2022/03/05 07:22:59;;;;;;;;;55.50;43.75;;;;;10.63;71.93;100764.41;146604;592;47012;-73
2022/03/05 07:25:51;;;;;;;;;48.25;40.25;;;;;10.69;71.93;100777.69;146610;605;45020;-73
2022/03/05 07:28:44;;;;;;;;;50.25;41.00;;;;;10.76;71.31;100777.19;146602;606;46016;-73
2022/03/05 07:31:35;;;;;;;;;68.25;53.50;;;;;10.89;71.23;100777.81;146605;571;46008;-73
2022/03/05 07:34:28;;;;;;;;;72.50;57.75;;;;;11.03;70.98;100782.00;146599;580;46913;-73
2022/03/05 07:37:20;;;;;;;;;84.33;74.67;;;;;11.16;71.37;100792.19;146604;578;46008;-73
2022/03/05 07:40:13;;;;;;;;;63.50;50.00;;;;;11.23;70.97;100798.56;146607;565;47010;-74
2022/03/05 07:43:05;;;;;;;;;67.25;54.25;;;;;11.29;71.36;100791.06;146609;564;46021;-72
2022/03/05 07:45:58;;;;;;;;;61.00;47.75;;;;;11.30;70.78;100792.84;146603;597;46017;-72
2022/03/05 07:48:50;;;;;;;;;58.50;47.00;;;;;11.31;71.09;100789.47;146607;616;46020;-72
2022/03/05 07:51:42;;;;;;;;;54.75;43.25;;;;;11.36;70.34;100781.88;146600;617;46012;-72
2022/03/05 07:54:35;;;;;;;;;55.75;45.25;;;;;11.39;69.34;100779.44;146608;651;46020;-72
2022/03/05 07:57:27;;;;;;;;;52.75;42.50;;;;;11.41;69.15;100770.91;146605;595;46017;-73
2022/03/05 08:00:19;;;;;;;;;66.75;52.00;;;;;11.48;69.18;100765.19;146610;569;45046;-72
2022/03/05 08:03:12;;;;;;;;;68.25;53.00;;;;;11.56;69.05;100760.38;146604;634;46913;-72
2022/03/05 08:06:04;;;;;;;;;64.50;49.00;;;;;11.66;69.06;100762.59;146600;583;47008;-72
2022/03/05 08:08:58;;;;;;;;;67.00;51.25;;;;;11.77;68.45;100760.47;146603;609;46016;-75
2022/03/05 08:11:50;;;;;;;;;61.75;49.25;;;;;11.82;68.43;100755.50;146608;601;46021;-71
2022/03/05 08:14:44;;;;;;;;;60.25;47.00;;;;;11.87;68.35;100760.16;146603;655;47012;-71
2022/03/05 08:17:36;;;;;;;;;60.75;47.50;;;;;11.92;67.79;100755.16;146607;647;46008;-72
2022/03/05 08:20:31;;;;;;;;;61.50;47.50;;;;;12.02;68.17;100752.13;146606;578;46010;-72
2022/03/05 08:23:23;;;;;;;;;60.50;47.75;;;;;12.14;69.00;100757.91;146608;566;46020;-72
2022/03/05 08:26:15;;;;;;;;;49.75;38.75;;;;;12.21;67.07;100762.56;146602;634;47010;-73
2022/03/05 08:29:08;;;;;;;;;45.25;36.25;;;;;12.20;68.49;100765.97;146609;620;46021;-72
2022/03/05 08:32:01;;;;;;;;;35.75;30.75;;;;;12.15;67.34;100763.97;146603;595;47010;-72
2022/03/05 08:34:53;;;;;;;;;29.50;28.25;;;;;12.10;66.60;100770.69;146602;642;46020;-72
2022/03/05 08:37:48;;;;;;;;;31.00;26.00;;;;;12.03;66.55;100772.13;146604;655;46010;-72
2022/03/05 08:40:40;;;;;;;;;36.25;30.00;;;;;11.97;66.96;100766.66;146610;627;46012;-72
2022/03/05 08:43:32;;;;;;;;;23.50;21.25;;;;;11.93;68.20;100769.91;146603;570;47012;-72
2022/03/05 08:46:24;;;;;;;;;18.75;16.75;;;;;11.86;65.20;100766.13;146598;588;47008;-71
2022/03/05 08:49:16;;;;;;;;;28.00;24.75;;;;;11.81;66.40;100780.59;146604;605;46016;-72
2022/03/05 08:52:09;;;;;;;;;26.25;22.50;;;;;11.79;66.46;100774.44;146610;566;46012;-72
2022/03/05 08:55:01;;;;;;;;;22.50;21.25;;;;;11.79;66.99;100777.03;146604;579;46016;-71
2022/03/05 08:57:53;;;;;;;;;26.25;24.00;;;;;11.82;66.20;100776.28;146606;580;46021;-72
2022/03/05 09:00:45;;;;;;;;;27.50;25.25;;;;;11.87;66.81;100777.41;146604;611;46016;-72
2022/03/05 09:03:37;;;;;;;;;30.25;26.25;;;;;11.93;67.08;100778.63;146603;601;46020;-72
2022/03/05 09:06:29;;;;;;;;;29.00;28.00;;;;;12.00;66.88;100782.37;146601;577;47010;-72
2022/03/05 09:09:21;;;;;;;;;28.50;24.75;;;;;12.03;66.67;100782.53;146605;575;47008;-72
2022/03/05 09:12:14;;;;;;;;;29.00;26.25;;;;;12.04;66.60;100779.09;146605;573;46016;-72
2022/03/05 09:15:31;;;;;;;;;;;;;;;;;;;;;
2022/03/05 09:18:37;;;;;;;;;23.00;21.00;;;;;12.14;65.45;100790.81;146602;569;47010;-86
2022/03/05 09:21:29;;;;;;;;;18.25;17.25;;;;;11.19;64.57;100639.19;146610;582;46020;-72
2022/03/05 09:24:21;;;;;;;;;20.25;19.25;;;;;12.14;64.50;100807.28;146605;586;46016;-75
2022/03/05 09:27:13;;;;;;;;;20.75;19.75;;;;;12.15;65.55;100801.28;146609;673;46021;-77
2022/03/05 09:30:07;;;;;;;;;28.50;24.00;;;;;12.22;65.94;100792.94;146604;565;46016;-75
2022/03/05 09:32:59;;;;;;;;;23.00;19.00;;;;;12.32;64.80;100790.75;146600;593;47008;-76
2022/03/05 09:35:51;;;;;;;;;23.25;22.25;;;;;12.40;64.26;100785.09;146601;574;47010;-74
2022/03/05 09:38:43;;;;;;;;;22.25;20.25;;;;;12.50;63.36;100785.50;146608;642;46020;-77
2022/03/05 09:41:36;;;;;;;;;27.50;22.75;;;;;12.54;63.63;100774.41;146602;586;47010;-79
2022/03/05 09:44:28;;;;;;;;;28.25;25.00;;;;;12.55;63.98;100776.16;146608;571;46021;-80
2022/03/05 09:47:21;;;;;;;;;40.25;33.25;;;;;12.55;64.29;100765.75;146603;659;46012;-79
2022/03/05 09:50:13;;;;;;;;;24.25;23.00;;;;;12.54;63.59;100764.00;146608;574;46021;-79
2022/03/05 09:53:06;;;;;;;;;23.50;22.50;;;;;12.54;64.38;100769.19;146604;600;46016;-77
2022/03/05 09:55:58;;;;;;;;;29.00;26.50;;;;;12.61;63.28;100758.22;146611;610;46020;-78
2022/03/05 09:58:55;;;;;;;;;22.75;20.25;;;;;12.71;63.38;100755.22;146601;656;47010;-78
2022/03/05 10:01:47;;;;;;;;;17.50;15.75;;;;;12.86;62.49;100750.66;146600;563;47008;-78
2022/03/05 10:04:40;;;;;;;;;19.00;17.00;;;;;13.08;62.41;100748.94;146601;615;46010;-78
2022/03/05 10:07:32;;;;;;;;;18.25;16.50;;;;;13.31;61.66;100745.63;146609;595;46020;-78
2022/03/05 10:10:24;;;;;;;;;15.75;14.75;;;;;13.54;61.66;100740.44;146603;577;47016;-78
2022/03/05 10:13:33;;;;;;;;;19.75;17.00;;;;;13.81;60.46;100746.72;146608;650;46021;-78
2022/03/05 10:16:34;;;;;;;;;17.25;16.25;;;;;13.95;60.25;100746.34;146604;575;46034;-78
2022/03/05 10:19:27;;;;;;;;;16.00;15.75;;;;;14.00;60.24;100753.50;146605;608;46020;-77
2022/03/05 10:22:19;;;;;;;;;19.50;18.75;;;;;14.00;60.50;100752.63;146603;597;46016;-78
2022/03/05 10:25:11;;;;;;;;;15.50;14.25;;;;;13.96;60.07;100750.75;146606;563;47008;-77
2022/03/05 10:28:19;;;;;;;;;19.50;18.00;;;;;13.96;60.64;100750.75;146604;626;46017;-77
2022/03/05 10:31:14;;;;;;;;;18.00;14.75;;;;;14.03;60.12;100758.84;146603;564;46020;-78
2022/03/05 10:34:06;;;;;;;;;17.50;14.25;;;;;14.05;60.16;100757.19;146603;618;47013;-77
2022/03/05 10:37:06;;;;;;;;;14.25;13.25;;;;;14.00;60.15;100743.09;146610;688;46020;-76
2022/03/05 10:39:57;;;;;;;;;16.75;13.50;;;;;13.92;60.00;100735.81;146603;572;47012;-78
2022/03/05 10:42:51;;;;;;;;;24.25;18.75;;;;;13.85;62.15;100740.78;146609;566;46021;-77
2022/03/05 10:45:55;;;;;;;;;24.50;23.50;;;;;13.85;60.68;100732.06;146603;702;46913;-77
2022/03/05 10:48:48;;;;;;;;;23.00;18.50;;;;;13.93;61.24;100737.59;146608;611;46021;-77
2022/03/05 10:51:41;;;;;;;;;21.75;21.00;;;;;14.04;61.36;100728.44;146604;569;46016;-77
2022/03/05 10:54:40;;;;;;;;;21.00;19.75;;;;;14.16;61.46;100721.06;146608;576;46008;-77
2022/03/05 10:57:33;;;;;;;;;17.75;14.25;;;;;14.27;59.17;100718.87;146604;569;46913;-77
2022/03/05 11:00:25;;;;;;;;;16.75;15.75;;;;;14.30;59.80;100722.47;146600;650;47008;-78
2022/03/05 11:03:19;;;;;;;;;24.00;21.75;;;;;14.40;59.73;100720.19;146605;657;46017;-77
2022/03/05 11:06:11;;;;;;;;;18.00;16.00;;;;;14.41;59.00;100715.03;146605;581;46012;-77
2022/03/05 11:09:05;;;;;;;;;17.50;15.50;;;;;14.35;58.90;100711.31;146606;604;46016;-76
2022/03/05 11:11:56;;;;;;;;;27.75;24.50;;;;;14.24;59.49;100709.22;146605;618;47008;-77
2022/03/05 11:14:53;;;;;;;;;19.75;19.75;;;;;14.14;59.23;100709.69;146603;593;46016;-77
2022/03/05 11:17:46;;;;;;;;;19.75;19.25;;;;;14.01;59.82;100692.72;146610;564;45021;-77
2022/03/05 11:20:39;;;;;;;;;30.25;27.50;;;;;13.95;60.08;100694.22;146601;570;47010;-77
2022/03/05 11:23:32;;;;;;;;;26.25;24.50;;;;;13.96;60.94;100693.41;146607;569;46020;-77
2022/03/05 11:26:24;;;;;;;;;35.75;29.00;;;;;14.00;61.21;100683.12;146604;792;46017;-77
2022/03/05 11:29:20;;;;;;;;;36.75;32.00;;;;;14.13;62.35;100681.84;146602;625;46008;-77
2022/03/05 11:32:17;;;;;;;;;40.75;32.50;;;;;14.35;61.60;100667.84;146606;571;46027;-78
2022/03/05 11:35:32;;;;;;;;;39.00;32.50;;;;;14.59;61.64;100659.12;146607;573;46020;-77
2022/03/05 11:38:41;;;;;;;;;28.25;25.50;;;;;14.84;59.16;100658.22;146603;703;47010;-76
2022/03/05 11:41:33;;;;;;;;;28.00;24.75;;;;;14.91;60.05;100644.53;146608;598;46021;-77
2022/03/05 11:44:28;;;;;;;;;24.25;22.75;;;;;14.92;60.31;100635.84;146605;586;46016;-77
2022/03/05 11:47:35;;;;;;;;;34.25;30.00;;;;;14.99;60.71;100638.72;146607;613;47008;-77
2022/03/05 11:50:29;;;;;;;;;37.50;32.75;;;;;15.00;59.38;100631.78;146603;671;46914;-77
2022/03/05 11:53:22;;;;;;;;;43.25;33.25;;;;;14.97;58.64;100621.22;146606;614;46020;-77
2022/03/05 11:56:30;;;;;;;;;31.00;28.75;;;;;14.91;58.62;100616.69;146605;627;46016;-78
2022/03/05 12:00:02;;;;;;;;;35.25;31.00;;;;;14.29;58.56;100545.94;146602;564;46020;-77
2022/03/05 12:02:55;;;;;;;;;43.25;34.75;;;;;14.57;58.48;100612.09;146601;588;47010;-77
2022/03/05 12:06:05;;;;;;;;;39.50;33.50;;;;;14.39;59.13;100611.44;146608;579;46021;-79
2022/03/05 12:08:57;;;;;;;;;43.25;35.00;;;;;14.22;59.15;100598.72;146604;583;46016;-77
2022/03/05 12:12:01;;;;;;;;;35.50;31.00;;;;;14.20;59.97;100583.84;146606;705;46021;-78
2022/03/05 12:15:19;;;;;;;;;34.25;31.50;;;;;13.38;59.60;100427.28;146605;658;46016;-78
2022/03/05 12:18:16;;;;;;;;;41.50;35.00;;;;;14.39;60.66;100596.72;146609;564;46021;-77
2022/03/05 12:21:08;;;;;;;;;37.00;32.25;;;;;14.42;59.92;100593.28;146602;623;47010;-77
2022/03/05 12:24:28;;;;;;;;;39.00;34.00;;;;;13.45;59.16;100437.94;146606;730;47008;-78
2022/03/05 12:27:23;;;;;;;;;43.25;33.00;;;;;14.22;59.17;100597.84;146603;572;47010;-79
2022/03/05 12:30:17;;;;;;;;;40.75;34.75;;;;;14.03;60.40;100591.09;146602;577;47008;-77
2022/03/05 12:33:17;;;;;;;;;37.25;32.50;;;;;13.83;60.26;100591.28;146607;638;46012;-78
2022/03/05 12:36:09;;;;;;;;;32.25;30.00;;;;;13.70;61.36;100589.06;146607;638;46008;-79
2022/03/05 12:39:04;;;;;;;;;35.50;29.75;;;;;13.61;60.78;100589.63;146602;621;47012;-79
2022/03/05 12:41:55;;;;;;;;;39.50;32.00;;;;;13.53;61.55;100591.06;146607;628;47008;-77
2022/03/05 12:44:48;;;;;;;;;43.75;32.25;;;;;13.51;61.55;100590.09;146605;737;46010;-78
2022/03/05 12:47:40;;;;;;;;;36.00;31.00;;;;;13.50;61.10;100585.72;146609;632;46020;-76
2022/03/05 12:50:39;;;;;;;;;33.25;30.25;;;;;13.47;60.89;100588.22;146604;569;46016;-78
2022/03/05 12:53:34;;;;;;;;;32.00;29.25;;;;;13.46;61.12;100591.66;146608;580;46008;-78
2022/03/05 12:56:27;;;;;;;;;44.50;35.00;;;;;13.49;61.78;100586.56;146603;570;47010;-79
2022/03/05 12:59:19;;;;;;;;;44.50;35.75;;;;;13.49;61.45;100583.97;146600;585;47008;-79
2022/03/05 13:02:11;;;;;;;;;34.75;29.50;;;;;13.47;61.55;100575.19;146601;622;47011;-76
2022/03/05 13:05:18;;;;;;;;;30.75;28.75;;;;;13.43;61.38;100573.31;146609;570;46008;-77
2022/03/05 13:08:14;;;;;;;;;32.50;28.50;;;;;13.42;61.68;100573.25;146603;577;46030;-77
2022/03/05 13:11:14;;;;;;;;;30.50;27.50;;;;;13.41;62.51;100567.16;146607;602;46021;-79
2022/03/05 13:14:06;;;;;;;;;32.75;28.25;;;;;13.45;62.23;100568.16;146604;646;46010;-76